sensor_id;sensor_type;location;lat;lon;timestamp;pressure;altitude;pressure_sealevel;temperature;humidity
21826;BME280;11075;47.944;11.776;2024-02-26T00:02:07;93087.22;;;-4.60;78.85
21826;BME280;11075;47.944;11.776;2024-02-26T00:04:34;93085.34;;;-3.84;72.97
21826;BME280;11075;47.944;11.776;2024-02-26T00:07:01;93095.88;;;-4.27;73.96
21826;BME280;11075;47.944;11.776;2024-02-26T00:09:28;93094.13;;;-4.22;74.31
21826;BME280;11075;47.944;11.776;2024-02-26T00:11:55;93099.28;;;-4.76;77.57
21826;BME280;11075;47.944;11.776;2024-02-26T00:14:22;93104.28;;;-4.47;75.68
21826;BME280;11075;47.944;11.776;2024-02-26T00:16:49;93094.72;;;-4.63;78.84
21826;BME280;11075;47.944;11.776;2024-02-26T00:19:16;93098.22;;;-4.53;77.01
21826;BME280;11075;47.944;11.776;2024-02-26T00:21:43;93100.34;;;-4.71;80.03
21826;BME280;11075;47.944;11.776;2024-02-26T00:24:09;93093.16;;;-4.64;78.59
21826;BME280;11075;47.944;11.776;2024-02-26T00:26:36;93095.22;;;-4.66;78.45
21826;BME280;11075;47.944;11.776;2024-02-26T00:29:03;93097.34;;;-4.85;79.41
21826;BME280;11075;47.944;11.776;2024-02-26T00:31:30;93092.44;;;-4.82;77.84
21826;BME280;11075;47.944;11.776;2024-02-26T00:33:57;93081.66;;;-3.88;71.97
21826;BME280;11075;47.944;11.776;2024-02-26T00:36:24;93086.06;;;-4.47;70.70
21826;BME280;11075;47.944;11.776;2024-02-26T00:38:51;93084.41;;;-4.53;71.63
21826;BME280;11075;47.944;11.776;2024-02-26T00:41:18;93079.81;;;-4.46;69.19
21826;BME280;11075;47.944;11.776;2024-02-26T00:43:46;93075.53;;;-4.57;70.58
21826;BME280;11075;47.944;11.776;2024-02-26T00:46:13;93080.81;;;-4.96;75.91
21826;BME280;11075;47.944;11.776;2024-02-26T00:48:39;93066.78;;;-4.46;75.43
21826;BME280;11075;47.944;11.776;2024-02-26T00:51:06;93069.41;;;-4.19;71.61
21826;BME280;11075;47.944;11.776;2024-02-26T00:53:34;93071.25;;;-4.90;78.83
21826;BME280;11075;47.944;11.776;2024-02-26T00:56:01;93074.81;;;-4.74;74.54
21826;BME280;11075;47.944;11.776;2024-02-26T00:58:28;93082.84;;;-4.54;71.77
21826;BME280;11075;47.944;11.776;2024-02-26T01:00:55;93080.44;;;-4.83;76.45
21826;BME280;11075;47.944;11.776;2024-02-26T01:03:22;93080.75;;;-4.03;69.98
21826;BME280;11075;47.944;11.776;2024-02-26T01:05:49;93077.56;;;-4.37;70.22
21826;BME280;11075;47.944;11.776;2024-02-26T01:08:18;93078.66;;;-4.55;70.64
21826;BME280;11075;47.944;11.776;2024-02-26T01:10:45;93084.84;;;-5.27;76.58
21826;BME280;11075;47.944;11.776;2024-02-26T01:13:12;93088.16;;;-4.44;70.86
21826;BME280;11075;47.944;11.776;2024-02-26T01:15:39;93081.91;;;-4.92;75.69
21826;BME280;11075;47.944;11.776;2024-02-26T01:18:05;93087.88;;;-4.91;73.35
21826;BME280;11075;47.944;11.776;2024-02-26T01:20:32;93086.31;;;-4.70;72.99
21826;BME280;11075;47.944;11.776;2024-02-26T01:22:59;93096.13;;;-4.78;72.82
21826;BME280;11075;47.944;11.776;2024-02-26T01:25:26;93090.25;;;-5.12;73.29
21826;BME280;11075;47.944;11.776;2024-02-26T01:27:53;93088.50;;;-5.45;75.14
21826;BME280;11075;47.944;11.776;2024-02-26T01:30:20;93093.06;;;-6.02;78.81
21826;BME280;11075;47.944;11.776;2024-02-26T01:32:47;93087.25;;;-5.59;75.74
21826;BME280;11075;47.944;11.776;2024-02-26T01:35:14;93093.78;;;-5.56;71.62
21826;BME280;11075;47.944;11.776;2024-02-26T01:37:41;93093.03;;;-5.35;70.24
21826;BME280;11075;47.944;11.776;2024-02-26T01:40:09;93093.69;;;-5.45;73.00
21826;BME280;11075;47.944;11.776;2024-02-26T01:42:38;93093.25;;;-5.20;72.82
21826;BME280;11075;47.944;11.776;2024-02-26T01:45:05;93088.59;;;-5.18;72.34
21826;BME280;11075;47.944;11.776;2024-02-26T01:47:33;93087.78;;;-5.57;75.90
21826;BME280;11075;47.944;11.776;2024-02-26T01:50:01;93081.22;;;-4.82;70.75
21826;BME280;11075;47.944;11.776;2024-02-26T01:52:28;93080.56;;;-4.94;70.00
21826;BME280;11075;47.944;11.776;2024-02-26T01:54:54;93074.69;;;-4.85;69.13
21826;BME280;11075;47.944;11.776;2024-02-26T01:57:21;93076.03;;;-5.04;70.08
21826;BME280;11075;47.944;11.776;2024-02-26T01:59:48;93076.34;;;-5.39;73.74
21826;BME280;11075;47.944;11.776;2024-02-26T02:02:15;93083.75;;;-5.31;74.46
21826;BME280;11075;47.944;11.776;2024-02-26T02:04:42;93074.41;;;-5.65;76.76
21826;BME280;11075;47.944;11.776;2024-02-26T02:07:09;93082.06;;;-5.59;74.49
21826;BME280;11075;47.944;11.776;2024-02-26T02:09:36;93081.44;;;-5.83;79.71
21826;BME280;11075;47.944;11.776;2024-02-26T02:12:04;93069.56;;;-5.40;74.82
21826;BME280;11075;47.944;11.776;2024-02-26T02:14:31;93067.41;;;-5.65;77.20
21826;BME280;11075;47.944;11.776;2024-02-26T02:16:58;93064.22;;;-4.90;68.93
21826;BME280;11075;47.944;11.776;2024-02-26T02:19:24;93061.97;;;-5.63;73.86
21826;BME280;11075;47.944;11.776;2024-02-26T02:21:51;93062.88;;;-4.70;69.01
21826;BME280;11075;47.944;11.776;2024-02-26T02:24:18;93049.16;;;-4.39;66.65
21826;BME280;11075;47.944;11.776;2024-02-26T02:26:45;93051.88;;;-4.78;67.51
21826;BME280;11075;47.944;11.776;2024-02-26T02:29:12;93053.34;;;-4.87;68.46
21826;BME280;11075;47.944;11.776;2024-02-26T02:31:40;93054.69;;;-5.45;70.55
21826;BME280;11075;47.944;11.776;2024-02-26T02:34:08;93057.59;;;-5.41;74.00
21826;BME280;11075;47.944;11.776;2024-02-26T02:36:56;93046.00;;;-5.72;78.13
21826;BME280;11075;47.944;11.776;2024-02-26T02:39:23;93050.84;;;-5.59;75.05
21826;BME280;11075;47.944;11.776;2024-02-26T02:41:50;93045.22;;;-5.12;72.34
21826;BME280;11075;47.944;11.776;2024-02-26T02:44:17;93045.47;;;-4.92;70.60
21826;BME280;11075;47.944;11.776;2024-02-26T02:46:43;93039.34;;;-5.24;70.55
21826;BME280;11075;47.944;11.776;2024-02-26T02:49:10;93041.78;;;-5.18;71.08
21826;BME280;11075;47.944;11.776;2024-02-26T02:51:37;93049.28;;;-5.60;73.35
21826;BME280;11075;47.944;11.776;2024-02-26T02:54:04;93051.75;;;-5.70;75.26
21826;BME280;11075;47.944;11.776;2024-02-26T02:56:31;93053.47;;;-4.98;68.80
21826;BME280;11075;47.944;11.776;2024-02-26T02:58:58;93047.56;;;-5.32;69.78
21826;BME280;11075;47.944;11.776;2024-02-26T03:01:25;93053.63;;;-4.83;67.46
21826;BME280;11075;47.944;11.776;2024-02-26T03:03:51;93047.66;;;-4.84;66.40
21826;BME280;11075;47.944;11.776;2024-02-26T03:06:18;93040.38;;;-5.25;69.31
21826;BME280;11075;47.944;11.776;2024-02-26T03:08:47;93048.00;;;-4.75;66.03
21826;BME280;11075;47.944;11.776;2024-02-26T03:11:14;93050.91;;;-4.71;65.60
21826;BME280;11075;47.944;11.776;2024-02-26T03:13:42;93048.47;;;-4.56;64.32
21826;BME280;11075;47.944;11.776;2024-02-26T03:16:09;93043.34;;;-5.17;67.33
21826;BME280;11075;47.944;11.776;2024-02-26T03:18:35;93052.25;;;-5.51;72.87
21826;BME280;11075;47.944;11.776;2024-02-26T03:21:05;93041.41;;;-5.04;69.08
21826;BME280;11075;47.944;11.776;2024-02-26T03:23:32;93044.88;;;-4.99;67.77
21826;BME280;11075;47.944;11.776;2024-02-26T03:26:03;93037.25;;;-4.84;67.09
21826;BME280;11075;47.944;11.776;2024-02-26T03:28:31;93046.41;;;-5.42;72.85
21826;BME280;11075;47.944;11.776;2024-02-26T03:31:01;93046.63;;;-5.65;74.88
21826;BME280;11075;47.944;11.776;2024-02-26T03:33:28;93046.00;;;-6.06;80.03
21826;BME280;11075;47.944;11.776;2024-02-26T03:35:55;93037.13;;;-5.16;73.12
21826;BME280;11075;47.944;11.776;2024-02-26T03:38:22;93047.25;;;-5.91;79.27
21826;BME280;11075;47.944;11.776;2024-02-26T03:40:49;93044.13;;;-4.72;70.61
21826;BME280;11075;47.944;11.776;2024-02-26T03:43:16;93039.78;;;-4.89;69.08
21826;BME280;11075;47.944;11.776;2024-02-26T03:45:43;93037.19;;;-5.11;70.84
21826;BME280;11075;47.944;11.776;2024-02-26T03:48:10;93040.44;;;-4.98;69.36
21826;BME280;11075;47.944;11.776;2024-02-26T03:50:37;93042.28;;;-4.99;69.46
21826;BME280;11075;47.944;11.776;2024-02-26T03:53:04;93038.91;;;-5.77;73.90
21826;BME280;11075;47.944;11.776;2024-02-26T03:55:31;93048.75;;;-6.12;78.58
21826;BME280;11075;47.944;11.776;2024-02-26T03:57:58;93044.75;;;-4.87;69.66
21826;BME280;11075;47.944;11.776;2024-02-26T04:00:25;93039.47;;;-5.36;71.31
21826;BME280;11075;47.944;11.776;2024-02-26T04:02:54;93036.81;;;-5.19;70.37
21826;BME280;11075;47.944;11.776;2024-02-26T04:05:21;93041.53;;;-5.38;72.21
21826;BME280;11075;47.944;11.776;2024-02-26T04:07:47;93032.41;;;-5.19;72.13
21826;BME280;11075;47.944;11.776;2024-02-26T04:10:14;93041.25;;;-5.20;70.41
21826;BME280;11075;47.944;11.776;2024-02-26T04:12:41;93038.16;;;-4.95;69.08
21826;BME280;11075;47.944;11.776;2024-02-26T04:15:09;93035.19;;;-5.03;67.09
21826;BME280;11075;47.944;11.776;2024-02-26T04:17:37;93038.56;;;-5.03;68.40
21826;BME280;11075;47.944;11.776;2024-02-26T04:20:06;93038.41;;;-4.96;68.41
21826;BME280;11075;47.944;11.776;2024-02-26T04:22:33;93040.03;;;-5.89;75.65
21826;BME280;11075;47.944;11.776;2024-02-26T04:25:00;93042.50;;;-5.22;70.53
21826;BME280;11075;47.944;11.776;2024-02-26T04:27:26;93057.50;;;-6.01;76.82
21826;BME280;11075;47.944;11.776;2024-02-26T04:29:53;93053.63;;;-5.65;74.47
21826;BME280;11075;47.944;11.776;2024-02-26T04:32:20;93046.19;;;-5.40;71.86
21826;BME280;11075;47.944;11.776;2024-02-26T04:34:47;93044.53;;;-5.46;71.20
21826;BME280;11075;47.944;11.776;2024-02-26T04:37:14;93044.63;;;-5.19;69.67
21826;BME280;11075;47.944;11.776;2024-02-26T04:39:41;93050.66;;;-5.35;70.52
21826;BME280;11075;47.944;11.776;2024-02-26T04:42:07;93055.31;;;-5.37;69.72
21826;BME280;11075;47.944;11.776;2024-02-26T04:44:34;93052.69;;;-4.99;68.17
21826;BME280;11075;47.944;11.776;2024-02-26T04:47:01;93058.72;;;-4.93;67.39
21826;BME280;11075;47.944;11.776;2024-02-26T04:49:28;93052.84;;;-4.84;66.00
21826;BME280;11075;47.944;11.776;2024-02-26T04:51:55;93051.75;;;-5.31;68.91
21826;BME280;11075;47.944;11.776;2024-02-26T04:54:22;93053.34;;;-5.47;69.88
21826;BME280;11075;47.944;11.776;2024-02-26T04:56:49;93044.72;;;-5.69;69.73
21826;BME280;11075;47.944;11.776;2024-02-26T04:59:16;93046.41;;;-5.97;73.66
21826;BME280;11075;47.944;11.776;2024-02-26T05:01:43;93047.50;;;-5.37;69.52
21826;BME280;11075;47.944;11.776;2024-02-26T05:04:10;93047.69;;;-5.44;70.26
21826;BME280;11075;47.944;11.776;2024-02-26T05:06:38;93053.63;;;-5.65;71.95
21826;BME280;11075;47.944;11.776;2024-02-26T05:09:05;93052.75;;;-5.71;70.42
21826;BME280;11075;47.944;11.776;2024-02-26T05:11:32;93045.66;;;-5.59;69.77
21826;BME280;11075;47.944;11.776;2024-02-26T05:13:59;93048.84;;;-6.24;77.49
21826;BME280;11075;47.944;11.776;2024-02-26T05:16:27;93046.84;;;-5.66;70.96
21826;BME280;11075;47.944;11.776;2024-02-26T05:18:54;93046.78;;;-5.88;72.39
21826;BME280;11075;47.944;11.776;2024-02-26T05:21:22;93044.34;;;-6.12;74.37
21826;BME280;11075;47.944;11.776;2024-02-26T05:23:49;93043.22;;;-5.65;72.42
21826;BME280;11075;47.944;11.776;2024-02-26T05:26:22;93031.81;;;-5.81;72.33
21826;BME280;11075;47.944;11.776;2024-02-26T05:28:49;93039.16;;;-5.95;74.19
21826;BME280;11075;47.944;11.776;2024-02-26T05:31:17;93041.75;;;-6.28;77.23
21826;BME280;11075;47.944;11.776;2024-02-26T05:33:44;93044.44;;;-6.23;77.61
21826;BME280;11075;47.944;11.776;2024-02-26T05:36:20;93044.91;;;-6.10;77.10
21826;BME280;11075;47.944;11.776;2024-02-26T05:38:49;93049.69;;;-6.18;76.10
21826;BME280;11075;47.944;11.776;2024-02-26T05:41:16;93049.31;;;-5.93;76.75
21826;BME280;11075;47.944;11.776;2024-02-26T05:43:46;93054.81;;;-6.07;79.89
21826;BME280;11075;47.944;11.776;2024-02-26T05:46:16;93050.56;;;-5.96;77.91
21826;BME280;11075;47.944;11.776;2024-02-26T05:48:44;93061.28;;;-5.92;77.80
21826;BME280;11075;47.944;11.776;2024-02-26T05:51:11;93055.50;;;-6.28;80.25
21826;BME280;11075;47.944;11.776;2024-02-26T05:53:38;93053.59;;;-5.49;75.37
21826;BME280;11075;47.944;11.776;2024-02-26T05:56:06;93052.88;;;-5.44;73.74
21826;BME280;11075;47.944;11.776;2024-02-26T05:58:32;93058.19;;;-5.56;75.18
21826;BME280;11075;47.944;11.776;2024-02-26T06:00:59;93065.44;;;-5.19;71.98
21826;BME280;11075;47.944;11.776;2024-02-26T06:03:27;93074.66;;;-6.00;78.01
21826;BME280;11075;47.944;11.776;2024-02-26T06:05:54;93080.72;;;-5.23;72.35
21826;BME280;11075;47.944;11.776;2024-02-26T06:08:21;93081.72;;;-5.07;70.94
21826;BME280;11075;47.944;11.776;2024-02-26T06:10:48;93083.47;;;-6.01;76.80
21826;BME280;11075;47.944;11.776;2024-02-26T06:13:15;93085.91;;;-5.61;75.81
21826;BME280;11075;47.944;11.776;2024-02-26T06:15:42;93089.78;;;-5.64;75.90
21826;BME280;11075;47.944;11.776;2024-02-26T06:18:09;93084.56;;;-4.87;71.45
21826;BME280;11075;47.944;11.776;2024-02-26T06:20:36;93096.91;;;-4.55;68.73
21826;BME280;11075;47.944;11.776;2024-02-26T06:23:03;93098.97;;;-4.57;69.42
21826;BME280;11075;47.944;11.776;2024-02-26T06:25:29;93097.00;;;-4.45;68.58
21826;BME280;11075;47.944;11.776;2024-02-26T06:27:56;93106.53;;;-4.99;71.62
21826;BME280;11075;47.944;11.776;2024-02-26T06:30:23;93106.34;;;-4.49;70.05
21826;BME280;11075;47.944;11.776;2024-02-26T06:32:50;93097.44;;;-3.99;66.85
21826;BME280;11075;47.944;11.776;2024-02-26T06:35:17;93089.28;;;-4.08;67.34
21826;BME280;11075;47.944;11.776;2024-02-26T06:37:44;93095.94;;;-4.22;69.79
21826;BME280;11075;47.944;11.776;2024-02-26T06:40:11;93106.34;;;-4.49;69.03
21826;BME280;11075;47.944;11.776;2024-02-26T06:42:38;93110.69;;;-4.33;71.06
21826;BME280;11075;47.944;11.776;2024-02-26T06:45:05;93113.63;;;-3.33;65.57
21826;BME280;11075;47.944;11.776;2024-02-26T06:47:32;93120.28;;;-3.10;64.92
21826;BME280;11075;47.944;11.776;2024-02-26T06:49:59;93119.50;;;-3.48;66.52
21826;BME280;11075;47.944;11.776;2024-02-26T06:52:27;93124.78;;;-3.75;68.51
21826;BME280;11075;47.944;11.776;2024-02-26T06:54:54;93131.03;;;-4.03;71.67
21826;BME280;11075;47.944;11.776;2024-02-26T06:57:21;93126.88;;;-3.40;68.42
21826;BME280;11075;47.944;11.776;2024-02-26T06:59:48;93129.00;;;-3.32;68.26
21826;BME280;11075;47.944;11.776;2024-02-26T07:02:16;93128.13;;;-3.48;69.56
21826;BME280;11075;47.944;11.776;2024-02-26T07:04:43;93124.19;;;-3.13;68.35
21826;BME280;11075;47.944;11.776;2024-02-26T07:07:10;93115.19;;;-2.90;67.50
21826;BME280;11075;47.944;11.776;2024-02-26T07:09:37;93115.63;;;-2.46;66.01
21826;BME280;11075;47.944;11.776;2024-02-26T07:12:04;93122.47;;;-2.35;64.89
21826;BME280;11075;47.944;11.776;2024-02-26T07:14:31;93126.59;;;-2.44;65.45
21826;BME280;11075;47.944;11.776;2024-02-26T07:16:59;93122.56;;;-2.09;65.21
21826;BME280;11075;47.944;11.776;2024-02-26T07:19:26;93123.66;;;-1.80;64.76
21826;BME280;11075;47.944;11.776;2024-02-26T07:21:53;93115.00;;;-1.91;66.11
21826;BME280;11075;47.944;11.776;2024-02-26T07:24:20;93122.63;;;-1.79;64.42
21826;BME280;11075;47.944;11.776;2024-02-26T07:26:47;93124.81;;;-2.33;72.36
21826;BME280;11075;47.944;11.776;2024-02-26T07:29:13;93118.44;;;-1.75;68.30
21826;BME280;11075;47.944;11.776;2024-02-26T07:31:40;93117.97;;;-0.41;63.10
21826;BME280;11075;47.944;11.776;2024-02-26T07:34:07;93115.16;;;-0.60;62.58
21826;BME280;11075;47.944;11.776;2024-02-26T07:36:35;93108.75;;;-1.24;64.71
21826;BME280;11075;47.944;11.776;2024-02-26T07:39:02;93113.22;;;-1.44;66.95
21826;BME280;11075;47.944;11.776;2024-02-26T07:41:29;93114.50;;;0.18;62.18
21826;BME280;11075;47.944;11.776;2024-02-26T07:43:56;93116.84;;;0.24;62.77
21826;BME280;11075;47.944;11.776;2024-02-26T07:46:23;93117.59;;;0.69;62.72
21826;BME280;11075;47.944;11.776;2024-02-26T07:48:50;93131.25;;;0.66;61.70
21826;BME280;11075;47.944;11.776;2024-02-26T07:51:17;93133.13;;;0.21;59.90
21826;BME280;11075;47.944;11.776;2024-02-26T07:53:44;93133.53;;;-0.06;65.00
21826;BME280;11075;47.944;11.776;2024-02-26T07:56:10;93141.19;;;-0.19;67.98
21826;BME280;11075;47.944;11.776;2024-02-26T07:58:37;93151.78;;;0.15;65.96
21826;BME280;11075;47.944;11.776;2024-02-26T08:01:04;93145.63;;;1.07;62.61
21826;BME280;11075;47.944;11.776;2024-02-26T08:03:31;93149.28;;;0.78;63.21
21826;BME280;11075;47.944;11.776;2024-02-26T08:05:58;93154.00;;;-0.08;65.59
21826;BME280;11075;47.944;11.776;2024-02-26T08:08:25;93156.31;;;-0.01;65.36
21826;BME280;11075;47.944;11.776;2024-02-26T08:10:52;93161.81;;;0.52;67.08
21826;BME280;11075;47.944;11.776;2024-02-26T08:13:18;93162.06;;;0.06;70.13
21826;BME280;11075;47.944;11.776;2024-02-26T08:15:45;93162.16;;;1.37;64.98
21826;BME280;11075;47.944;11.776;2024-02-26T08:18:12;93158.00;;;1.02;65.36
21826;BME280;11075;47.944;11.776;2024-02-26T08:20:39;93152.81;;;1.74;62.23
21826;BME280;11075;47.944;11.776;2024-02-26T08:23:06;93150.84;;;1.84;61.47
21826;BME280;11075;47.944;11.776;2024-02-26T08:25:33;93137.91;;;3.00;55.26
21826;BME280;11075;47.944;11.776;2024-02-26T08:28:00;93140.41;;;2.41;58.66
21826;BME280;11075;47.944;11.776;2024-02-26T08:30:27;93146.81;;;2.34;56.41
21826;BME280;11075;47.944;11.776;2024-02-26T08:32:54;93142.31;;;2.54;56.44
21826;BME280;11075;47.944;11.776;2024-02-26T08:35:21;93144.13;;;1.97;58.65
21826;BME280;11075;47.944;11.776;2024-02-26T08:37:48;93149.81;;;2.04;61.02
21826;BME280;11075;47.944;11.776;2024-02-26T08:40:15;93146.81;;;2.34;60.91
21826;BME280;11075;47.944;11.776;2024-02-26T08:42:42;93143.41;;;2.34;61.86
21826;BME280;11075;47.944;11.776;2024-02-26T08:45:09;93153.28;;;2.61;60.61
21826;BME280;11075;47.944;11.776;2024-02-26T08:47:36;93149.72;;;2.71;60.32
21826;BME280;11075;47.944;11.776;2024-02-26T08:50:04;93145.19;;;2.15;61.79
21826;BME280;11075;47.944;11.776;2024-02-26T08:52:31;93140.31;;;2.46;62.04
21826;BME280;11075;47.944;11.776;2024-02-26T08:54:59;93144.44;;;2.52;60.63
21826;BME280;11075;47.944;11.776;2024-02-26T08:57:26;93143.34;;;2.15;62.05
21826;BME280;11075;47.944;11.776;2024-02-26T08:59:58;93148.88;;;2.38;62.67
21826;BME280;11075;47.944;11.776;2024-02-26T09:02:25;93153.56;;;2.59;62.17
21826;BME280;11075;47.944;11.776;2024-02-26T09:04:52;93155.00;;;2.09;64.31
21826;BME280;11075;47.944;11.776;2024-02-26T09:07:21;93157.00;;;1.51;67.63
21826;BME280;11075;47.944;11.776;2024-02-26T09:09:49;93155.03;;;1.85;67.36
21826;BME280;11075;47.944;11.776;2024-02-26T09:12:15;93152.56;;;2.55;64.50
21826;BME280;11075;47.944;11.776;2024-02-26T09:14:42;93149.72;;;2.52;64.69
21826;BME280;11075;47.944;11.776;2024-02-26T09:17:09;93156.44;;;2.95;63.30
21826;BME280;11075;47.944;11.776;2024-02-26T09:19:36;93146.22;;;2.75;64.16
21826;BME280;11075;47.944;11.776;2024-02-26T09:22:04;93152.00;;;3.23;63.05
21826;BME280;11075;47.944;11.776;2024-02-26T09:24:31;93148.06;;;3.53;60.04
21826;BME280;11075;47.944;11.776;2024-02-26T09:26:58;93149.72;;;3.77;58.27
21826;BME280;11075;47.944;11.776;2024-02-26T09:29:25;93156.16;;;3.71;60.73
21826;BME280;11075;47.944;11.776;2024-02-26T09:31:53;93153.34;;;4.58;57.41
21826;BME280;11075;47.944;11.776;2024-02-26T09:34:20;93152.94;;;4.87;55.38
21826;BME280;11075;47.944;11.776;2024-02-26T09:36:47;93154.75;;;5.45;54.07
21826;BME280;11075;47.944;11.776;2024-02-26T09:39:14;93158.88;;;5.15;56.76
21826;BME280;11075;47.944;11.776;2024-02-26T09:41:50;93150.59;;;6.01;53.88
21826;BME280;11075;47.944;11.776;2024-02-26T09:44:19;93141.81;;;5.43;52.00
21826;BME280;11075;47.944;11.776;2024-02-26T09:46:52;93154.59;;;4.60;48.42
21826;BME280;11075;47.944;11.776;2024-02-26T09:49:19;93154.91;;;5.48;47.40
21826;BME280;11075;47.944;11.776;2024-02-26T09:51:49;93150.34;;;4.51;48.21
21826;BME280;11075;47.944;11.776;2024-02-26T09:54:17;93154.50;;;4.29;48.48
21826;BME280;11075;47.944;11.776;2024-02-26T09:56:46;93153.19;;;4.41;49.30
21826;BME280;11075;47.944;11.776;2024-02-26T09:59:29;93162.97;;;4.99;47.84
21826;BME280;11075;47.944;11.776;2024-02-26T10:02:01;93164.94;;;4.35;48.32
21826;BME280;11075;47.944;11.776;2024-02-26T10:04:30;93159.56;;;5.82;47.61
21826;BME280;11075;47.944;11.776;2024-02-26T10:06:58;93145.00;;;6.02;48.06
21826;BME280;11075;47.944;11.776;2024-02-26T10:09:26;93151.88;;;5.64;47.79
21826;BME280;11075;47.944;11.776;2024-02-26T10:11:54;93147.38;;;5.73;48.46
21826;BME280;11075;47.944;11.776;2024-02-26T10:14:21;93145.03;;;5.32;48.53
21826;BME280;11075;47.944;11.776;2024-02-26T10:16:50;93137.44;;;4.72;48.83
21826;BME280;11075;47.944;11.776;2024-02-26T10:19:27;93141.47;;;4.69;50.10
21826;BME280;11075;47.944;11.776;2024-02-26T10:21:58;93132.44;;;5.37;47.77
21826;BME280;11075;47.944;11.776;2024-02-26T10:24:30;93148.56;;;5.27;46.45
21826;BME280;11075;47.944;11.776;2024-02-26T10:26:57;93138.31;;;4.45;47.39
21826;BME280;11075;47.944;11.776;2024-02-26T10:29:25;93140.69;;;4.69;46.57
21826;BME280;11075;47.944;11.776;2024-02-26T10:31:52;93142.06;;;5.33;45.37
21826;BME280;11075;47.944;11.776;2024-02-26T10:34:19;93145.13;;;5.97;44.16
21826;BME280;11075;47.944;11.776;2024-02-26T10:36:47;93132.44;;;5.15;45.43
21826;BME280;11075;47.944;11.776;2024-02-26T10:39:20;93111.28;;;5.37;46.62
21826;BME280;11075;47.944;11.776;2024-02-26T10:41:47;93133.13;;;5.51;45.62
21826;BME280;11075;47.944;11.776;2024-02-26T10:44:14;93136.50;;;5.74;45.19
21826;BME280;11075;47.944;11.776;2024-02-26T10:46:47;93130.66;;;5.95;45.52
21826;BME280;11075;47.944;11.776;2024-02-26T10:49:16;93146.69;;;6.46;44.44
21826;BME280;11075;47.944;11.776;2024-02-26T10:51:54;93141.69;;;6.88;44.22
21826;BME280;11075;47.944;11.776;2024-02-26T10:54:23;93118.47;;;6.76;44.03
21826;BME280;11075;47.944;11.776;2024-02-26T10:56:53;93121.50;;;5.30;44.82
21826;BME280;11075;47.944;11.776;2024-02-26T10:59:22;93133.66;;;5.62;44.91
21826;BME280;11075;47.944;11.776;2024-02-26T11:01:50;93143.94;;;6.20;43.63
21826;BME280;11075;47.944;11.776;2024-02-26T11:04:18;93143.09;;;6.85;43.29
21826;BME280;11075;47.944;11.776;2024-02-26T11:06:46;93151.53;;;6.70;41.71
21826;BME280;11075;47.944;11.776;2024-02-26T11:09:15;93167.56;;;7.26;40.71
21826;BME280;11075;47.944;11.776;2024-02-26T11:11:44;93134.50;;;6.45;42.39
21826;BME280;11075;47.944;11.776;2024-02-26T11:14:12;93125.41;;;5.64;43.06
21826;BME280;11075;47.944;11.776;2024-02-26T11:16:40;93121.25;;;5.80;43.29
21826;BME280;11075;47.944;11.776;2024-02-26T11:19:10;93136.38;;;6.53;42.76
21826;BME280;11075;47.944;11.776;2024-02-26T11:21:39;93182.16;;;8.72;39.46
21826;BME280;11075;47.944;11.776;2024-02-26T11:24:12;93170.44;;;8.43;40.25
21826;BME280;11075;47.944;11.776;2024-02-26T11:26:53;93172.13;;;8.19;39.99
21826;BME280;11075;47.944;11.776;2024-02-26T11:29:33;93132.34;;;7.72;42.11
21826;BME280;11075;47.944;11.776;2024-02-26T11:32:01;93185.22;;;8.53;38.84
21826;BME280;11075;47.944;11.776;2024-02-26T11:34:29;93191.13;;;10.45;37.91
21826;BME280;11075;47.944;11.776;2024-02-26T11:36:57;93197.75;;;9.03;36.86
21826;BME280;11075;47.944;11.776;2024-02-26T11:39:35;93171.75;;;9.74;37.57
21826;BME280;11075;47.944;11.776;2024-02-26T11:42:09;93194.31;;;10.01;35.02
21826;BME280;11075;47.944;11.776;2024-02-26T11:44:36;93217.66;;;12.14;33.32
21826;BME280;11075;47.944;11.776;2024-02-26T11:47:14;93174.00;;;10.82;35.56
21826;BME280;11075;47.944;11.776;2024-02-26T11:49:44;93149.13;;;10.17;36.59
21826;BME280;11075;47.944;11.776;2024-02-26T11:52:13;93140.53;;;10.60;36.21
21826;BME280;11075;47.944;11.776;2024-02-26T11:54:48;93179.53;;;12.48;33.44
21826;BME280;11075;47.944;11.776;2024-02-26T11:57:48;93170.03;;;12.04;34.31
21826;BME280;11075;47.944;11.776;2024-02-26T12:00:16;93163.91;;;12.19;34.29
21826;BME280;11075;47.944;11.776;2024-02-26T12:02:50;93140.59;;;11.00;35.45
21826;BME280;11075;47.944;11.776;2024-02-26T12:05:32;93174.41;;;12.75;33.45
21826;BME280;11075;47.944;11.776;2024-02-26T12:08:03;93158.31;;;12.40;33.30
21826;BME280;11075;47.944;11.776;2024-02-26T12:10:38;93140.88;;;11.67;35.00
21826;BME280;11075;47.944;11.776;2024-02-26T12:13:10;93140.44;;;12.12;34.24
21826;BME280;11075;47.944;11.776;2024-02-26T12:15:55;93139.44;;;12.68;34.59
21826;BME280;11075;47.944;11.776;2024-02-26T12:18:23;93126.06;;;12.01;34.67
21826;BME280;11075;47.944;11.776;2024-02-26T12:21:03;93099.03;;;10.11;37.17
21826;BME280;11075;47.944;11.776;2024-02-26T12:23:31;93149.06;;;11.74;35.11
21826;BME280;11075;47.944;11.776;2024-02-26T12:25:59;93130.34;;;10.26;36.35
21826;BME280;11075;47.944;11.776;2024-02-26T12:28:29;93139.44;;;10.49;35.99
21826;BME280;11075;47.944;11.776;2024-02-26T12:30:56;93126.00;;;10.70;36.24
21826;BME280;11075;47.944;11.776;2024-02-26T12:33:27;93136.53;;;9.24;36.22
21826;BME280;11075;47.944;11.776;2024-02-26T12:35:55;93154.56;;;9.84;35.51
21826;BME280;11075;47.944;11.776;2024-02-26T12:38:23;93210.75;;;11.41;32.69
21826;BME280;11075;47.944;11.776;2024-02-26T12:40:50;93207.66;;;11.67;32.88
21826;BME280;11075;47.944;11.776;2024-02-26T12:43:17;93223.06;;;11.18;31.89
21826;BME280;11075;47.944;11.776;2024-02-26T12:45:44;93167.91;;;10.21;35.08
21826;BME280;11075;47.944;11.776;2024-02-26T12:48:14;93209.38;;;11.19;32.97
21826;BME280;11075;47.944;11.776;2024-02-26T12:50:48;93216.34;;;11.36;32.78
21826;BME280;11075;47.944;11.776;2024-02-26T12:53:15;93197.72;;;11.95;32.71
21826;BME280;11075;47.944;11.776;2024-02-26T12:55:42;93205.78;;;10.51;32.42
21826;BME280;11075;47.944;11.776;2024-02-26T12:58:11;93192.69;;;10.33;32.54